Time;durP1;ratioP1;P1;durP2;ratioP2;P2;SDS_P1;SDS_P2;PMS_P1;PMS_P2;Temp;Humidity;BMP_temperature;BMP_pressure;BME280_temperature;BME280_humidity;BME280_pressure;Samples;Min_cycle;Max_cycle;Signal;HPM_P1;HPM_P2
2022/05/17 00:00:41;;;;;;;16.70;3.70;;;;;;;;;;5072260;28;20064;-67
2022/05/17 00:03:07;;;;;;;14.43;2.90;;;;;;;;;;5071944;28;20033;-67
2022/05/17 00:05:35;;;;;;;14.32;3.90;;;;;;;;;;5058412;28;20040;-67
2022/05/17 00:08:01;;;;;;;13.02;3.10;;;;;;;;;;5052068;28;20040;-67
2022/05/17 00:10:27;;;;;;;14.32;2.92;;;;;;;;;;5057080;28;20029;-67
2022/05/17 00:12:53;;;;;;;9.63;2.53;;;;;;;;;;5071805;28;20034;-67
2022/05/17 00:15:20;;;;;;;15.07;2.58;;;;;;;;;;5071827;28;20025;-67
2022/05/17 00:17:46;;;;;;;9.82;2.97;;;;;;;;;;5072135;28;20049;-67
2022/05/17 00:20:13;;;;;;;10.73;2.38;;;;;;;;;;5071706;28;20047;-67
2022/05/17 00:22:40;;;;;;;19.10;2.63;;;;;;;;;;5071959;28;20078;-67
2022/05/17 00:25:06;;;;;;;8.80;2.58;;;;;;;;;;5069590;28;20024;-68
2022/05/17 00:27:32;;;;;;;9.88;2.45;;;;;;;;;;5055473;28;20033;-67
2022/05/17 00:29:59;;;;;;;8.98;2.72;;;;;;;;;;5054637;28;20078;-67
2022/05/17 00:32:25;;;;;;;15.45;2.30;;;;;;;;;;5055411;28;20029;-67
2022/05/17 00:34:51;;;;;;;15.00;2.70;;;;;;;;;;5055873;28;20071;-67
2022/05/17 00:37:17;;;;;;;17.27;3.58;;;;;;;;;;5055534;28;20119;-67
2022/05/17 00:39:43;;;;;;;10.20;2.80;;;;;;;;;;5057307;28;20021;-67
2022/05/17 00:42:10;;;;;;;15.23;2.67;;;;;;;;;;5075222;28;20031;-67
2022/05/17 00:44:42;;;;;;;11.95;2.65;;;;;;;;;;5075536;28;20029;-67
2022/05/17 00:47:19;;;;;;;8.30;2.90;;;;;;;;;;5075356;28;20031;-67
2022/05/17 00:50:03;;;;;;;11.38;2.92;;;;;;;;;;5075752;28;20110;-67
2022/05/17 00:52:37;;;;;;;14.48;2.53;;;;;;;;;;5075232;28;20484;-67
2022/05/17 00:55:06;;;;;;;10.13;3.28;;;;;;;;;;5074687;28;20196;-67
2022/05/17 00:57:33;;;;;;;10.45;2.30;;;;;;;;;;5074966;28;20138;-67
2022/05/17 01:00:02;;;;;;;6.75;2.15;;;;;;;;;;5075314;28;20025;-67
2022/05/17 01:02:30;;;;;;;13.02;2.70;;;;;;;;;;5074928;28;20033;-67
2022/05/17 01:04:56;;;;;;;11.52;2.40;;;;;;;;;;5075233;28;20052;-67
2022/05/17 01:07:24;;;;;;;7.35;2.38;;;;;;;;;;5074882;28;20036;-67
2022/05/17 01:09:50;;;;;;;17.70;2.88;;;;;;;;;;5069268;28;20609;-67
2022/05/17 01:12:17;;;;;;;8.85;2.63;;;;;;;;;;5054862;28;20564;-67
2022/05/17 01:14:58;;;;;;;5.97;1.90;;;;;;;;;;5054841;28;20064;-67
2022/05/17 01:17:25;;;;;;;8.27;2.10;;;;;;;;;;5054737;28;20032;-67
2022/05/17 01:19:51;;;;;;;10.65;2.40;;;;;;;;;;5055012;28;20039;-67
2022/05/17 01:22:18;;;;;;;6.82;2.05;;;;;;;;;;5054707;28;20127;-67
2022/05/17 01:24:44;;;;;;;9.25;2.60;;;;;;;;;;5054439;28;20043;-67
2022/05/17 01:27:25;;;;;;;11.88;3.45;;;;;;;;;;5054998;28;20497;-67
2022/05/17 01:29:52;;;;;;;10.30;2.45;;;;;;;;;;5054834;28;20068;-67
2022/05/17 01:32:18;;;;;;;16.67;3.63;;;;;;;;;;5054491;28;20055;-67
2022/05/17 01:34:44;;;;;;;10.57;2.47;;;;;;;;;;5054691;28;20393;-67
2022/05/17 01:37:12;;;;;;;9.73;2.65;;;;;;;;;;5054062;28;20029;-67
2022/05/17 01:39:38;;;;;;;10.80;2.42;;;;;;;;;;5054168;28;20033;-67
2022/05/17 01:42:04;;;;;;;9.00;3.22;;;;;;;;;;5064008;28;20024;-67
2022/05/17 01:44:31;;;;;;;14.27;3.03;;;;;;;;;;5074236;28;20556;-67
2022/05/17 01:46:57;;;;;;;14.57;2.63;;;;;;;;;;5074248;28;20493;-67
2022/05/17 01:49:23;;;;;;;10.82;2.33;;;;;;;;;;5074220;28;20032;-67
2022/05/17 01:51:49;;;;;;;8.85;2.50;;;;;;;;;;5074436;28;20017;-67
2022/05/17 01:54:15;;;;;;;13.65;2.72;;;;;;;;;;5073848;28;20107;-67
2022/05/17 01:56:41;;;;;;;12.23;2.58;;;;;;;;;;5073873;28;20504;-67
2022/05/17 01:59:08;;;;;;;10.50;2.67;;;;;;;;;;5073700;28;20028;-67
2022/05/17 02:01:34;;;;;;;13.88;2.72;;;;;;;;;;5074297;28;20116;-67
2022/05/17 02:04:00;;;;;;;8.02;2.38;;;;;;;;;;5074225;28;20489;-67
2022/05/17 02:06:26;;;;;;;7.50;2.42;;;;;;;;;;5073858;28;20017;-67
2022/05/17 02:08:52;;;;;;;9.93;2.63;;;;;;;;;;5073748;28;20056;-67
2022/05/17 02:11:18;;;;;;;10.70;3.22;;;;;;;;;;5073850;28;20027;-67
2022/05/17 02:13:44;;;;;;;5.22;2.30;;;;;;;;;;5067954;28;20024;-67
2022/05/17 02:16:13;;;;;;;7.53;2.55;;;;;;;;;;5053979;28;20021;-67
2022/05/17 02:18:39;;;;;;;12.20;2.60;;;;;;;;;;5053397;28;20025;-67
2022/05/17 02:21:07;;;;;;;10.40;2.10;;;;;;;;;;5053693;28;20040;-67
2022/05/17 02:23:33;;;;;;;8.60;2.70;;;;;;;;;;5052999;28;20119;-67
2022/05/17 02:25:59;;;;;;;10.80;2.28;;;;;;;;;;5054019;28;20392;-67
2022/05/17 02:28:25;;;;;;;9.85;2.28;;;;;;;;;;5053643;28;20028;-67
2022/05/17 02:30:51;;;;;;;6.95;2.63;;;;;;;;;;5073427;28;20024;-67
2022/05/17 02:33:18;;;;;;;9.75;3.13;;;;;;;;;;5073304;28;20439;-67
2022/05/17 02:35:44;;;;;;;8.43;2.60;;;;;;;;;;5073340;28;20036;-67
2022/05/17 02:38:10;;;;;;;11.32;2.88;;;;;;;;;;5073251;28;20032;-67
2022/05/17 02:40:36;;;;;;;11.93;2.97;;;;;;;;;;5073220;28;20024;-67
2022/05/17 02:43:03;;;;;;;12.23;3.10;;;;;;;;;;5073570;28;20028;-67
2022/05/17 02:45:30;;;;;;;9.88;3.10;;;;;;;;;;5072262;28;20066;-67
2022/05/17 02:47:56;;;;;;;12.80;4.20;;;;;;;;;;5072574;28;20613;-67
2022/05/17 02:50:22;;;;;;;11.90;2.75;;;;;;;;;;5073058;28;20017;-67
2022/05/17 02:52:49;;;;;;;14.00;3.08;;;;;;;;;;5073049;28;20028;-67
2022/05/17 02:55:15;;;;;;;7.90;2.50;;;;;;;;;;5073103;28;20036;-67
2022/05/17 02:57:42;;;;;;;15.68;3.28;;;;;;;;;;5072683;28;20041;-67
2022/05/17 03:00:13;;;;;;;13.15;2.90;;;;;;;;;;5073091;28;20036;-67
2022/05/17 03:02:39;;;;;;;10.85;3.13;;;;;;;;;;5068088;28;20076;-67
2022/05/17 03:05:05;;;;;;;14.82;2.65;;;;;;;;;;5052960;28;20021;-67
2022/05/17 03:07:31;;;;;;;8.00;3.00;;;;;;;;;;5052677;28;20029;-68
2022/05/17 03:09:57;;;;;;;12.13;2.92;;;;;;;;;;5052901;28;20104;-67
2022/05/17 03:12:23;;;;;;;18.85;3.20;;;;;;;;;;5052735;28;20036;-67
2022/05/17 03:14:50;;;;;;;13.10;2.92;;;;;;;;;;5051436;28;20464;-67
2022/05/17 03:17:17;;;;;;;11.23;3.10;;;;;;;;;;5052796;28;20094;-68
2022/05/17 03:19:44;;;;;;;7.47;2.53;;;;;;;;;;5057890;28;20024;-67
2022/05/17 03:22:10;;;;;;;6.47;3.05;;;;;;;;;;5072666;28;20033;-67
2022/05/17 03:24:37;;;;;;;9.23;2.80;;;;;;;;;;5072414;28;20025;-67
2022/05/17 03:27:04;;;;;;;11.35;3.13;;;;;;;;;;5072681;28;20384;-67
2022/05/17 03:29:30;;;;;;;14.10;3.63;;;;;;;;;;5052700;28;20036;-67
2022/05/17 03:31:56;;;;;;;11.27;2.80;;;;;;;;;;5055886;28;20373;-68
2022/05/17 03:34:23;;;;;;;11.13;3.17;;;;;;;;;;5072398;28;20021;-67
2022/05/17 03:36:49;;;;;;;11.27;3.20;;;;;;;;;;5072309;28;20055;-67
2022/05/17 03:39:16;;;;;;;13.10;3.20;;;;;;;;;;5072487;28;20032;-67
2022/05/17 03:41:42;;;;;;;15.15;3.33;;;;;;;;;;5072170;28;20028;-67
2022/05/17 03:44:08;;;;;;;14.88;3.58;;;;;;;;;;5059947;28;20032;-68
2022/05/17 03:46:34;;;;;;;8.02;2.97;;;;;;;;;;5066623;28;20027;-67
2022/05/17 03:49:01;;;;;;;10.18;3.00;;;;;;;;;;5071994;28;20033;-67
2022/05/17 03:51:27;;;;;;;11.35;3.33;;;;;;;;;;5072097;28;20029;-67
2022/05/17 03:53:53;;;;;;;15.23;4.70;;;;;;;;;;5072193;28;20020;-68
2022/05/17 03:56:20;;;;;;;15.27;3.55;;;;;;;;;;5071844;28;20048;-67
2022/05/17 03:58:46;;;;;;;11.85;3.20;;;;;;;;;;5071864;28;20071;-67
2022/05/17 04:01:13;;;;;;;8.10;2.55;;;;;;;;;;5071885;28;20059;-67
2022/05/17 04:03:41;;;;;;;12.77;3.30;;;;;;;;;;5052872;28;20032;-67
2022/05/17 04:06:07;;;;;;;14.77;3.20;;;;;;;;;;5052211;28;20029;-67
2022/05/17 04:08:33;;;;;;;20.77;4.53;;;;;;;;;;5052254;28;20060;-67
2022/05/17 04:11:00;;;;;;;10.77;4.32;;;;;;;;;;5052000;28;20028;-67
2022/05/17 04:13:29;;;;;;;11.07;3.42;;;;;;;;;;5052015;28;20033;-68
2022/05/17 04:15:57;;;;;;;15.95;4.00;;;;;;;;;;5051908;28;20037;-67
2022/05/17 04:18:23;;;;;;;15.13;3.88;;;;;;;;;;5051662;28;20017;-67
2022/05/17 04:20:49;;;;;;;8.75;3.00;;;;;;;;;;5063744;28;20056;-67
2022/05/17 04:23:15;;;;;;;8.77;3.60;;;;;;;;;;5071900;28;20029;-67
2022/05/17 04:25:41;;;;;;;15.63;3.65;;;;;;;;;;5071618;28;20566;-68
2022/05/17 04:28:08;;;;;;;15.85;5.15;;;;;;;;;;5059316;28;20043;-67
2022/05/17 04:30:34;;;;;;;8.30;3.30;;;;;;;;;;5051791;28;20469;-67
2022/05/17 04:33:01;;;;;;;11.80;3.50;;;;;;;;;;5051493;28;20028;-67
2022/05/17 04:35:28;;;;;;;14.63;3.45;;;;;;;;;;5051641;28;20048;-67
2022/05/17 04:37:54;;;;;;;16.02;3.38;;;;;;;;;;5057268;28;20028;-67
2022/05/17 04:40:20;;;;;;;11.77;3.80;;;;;;;;;;5071698;28;20043;-67
2022/05/17 04:42:47;;;;;;;8.95;3.00;;;;;;;;;;5071201;28;20035;-68
2022/05/17 04:45:15;;;;;;;11.35;4.63;;;;;;;;;;5071441;28;20031;-67
2022/05/17 04:47:42;;;;;;;16.25;4.47;;;;;;;;;;5071000;28;20112;-67
2022/05/17 04:50:09;;;;;;;13.13;3.65;;;;;;;;;;5070244;28;20430;-67
2022/05/17 04:52:35;;;;;;;17.35;3.33;;;;;;;;;;5070754;28;20016;-67
2022/05/17 04:55:01;;;;;;;13.15;3.10;;;;;;;;;;5071115;28;20032;-67
2022/05/17 04:57:28;;;;;;;11.88;3.33;;;;;;;;;;5051255;28;20053;-67
2022/05/17 04:59:54;;;;;;;8.20;3.08;;;;;;;;;;5050029;28;20400;-67
2022/05/17 05:02:20;;;;;;;12.65;4.15;;;;;;;;;;5050876;28;20082;-67
2022/05/17 05:04:46;;;;;;;9.60;2.88;;;;;;;;;;5049795;28;20037;-67
2022/05/17 05:07:12;;;;;;;10.50;3.33;;;;;;;;;;5046585;28;20017;-67
2022/05/17 05:09:38;;;;;;;11.68;3.17;;;;;;;;;;5049549;28;20033;-67
2022/05/17 05:12:05;;;;;;;15.75;3.10;;;;;;;;;;5050682;28;20039;-67
2022/05/17 05:14:31;;;;;;;13.80;3.42;;;;;;;;;;5053154;28;20120;-67
2022/05/17 05:16:57;;;;;;;7.70;2.40;;;;;;;;;;5046129;28;20032;-67
2022/05/17 05:19:23;;;;;;;12.73;3.38;;;;;;;;;;5053966;28;20497;-67
2022/05/17 05:21:49;;;;;;;8.43;2.80;;;;;;;;;;5054766;28;20037;-67
2022/05/17 05:24:17;;;;;;;17.13;3.47;;;;;;;;;;5053498;28;20029;-67
2022/05/17 05:26:43;;;;;;;10.55;3.15;;;;;;;;;;5053788;28;20509;-67
2022/05/17 05:29:09;;;;;;;12.55;3.53;;;;;;;;;;5043095;28;20056;-68
2022/05/17 05:31:35;;;;;;;6.30;2.88;;;;;;;;;;5046631;28;20420;-68
2022/05/17 05:34:01;;;;;;;7.60;2.75;;;;;;;;;;5052044;28;20036;-67
2022/05/17 05:36:28;;;;;;;10.73;3.60;;;;;;;;;;5053602;28;20032;-68
2022/05/17 05:38:54;;;;;;;8.27;2.80;;;;;;;;;;5053453;28;20404;-68
2022/05/17 05:41:20;;;;;;;9.05;3.20;;;;;;;;;;5053315;28;20025;-67
2022/05/17 05:43:46;;;;;;;7.05;3.38;;;;;;;;;;5075266;28;20090;-67
2022/05/17 05:46:13;;;;;;;11.98;2.97;;;;;;;;;;5046602;28;20064;-67
2022/05/17 05:48:39;;;;;;;14.23;4.00;;;;;;;;;;5053484;28;20032;-67
2022/05/17 05:51:06;;;;;;;10.13;3.03;;;;;;;;;;5059232;28;20155;-67
2022/05/17 05:53:32;;;;;;;8.18;3.63;;;;;;;;;;5052728;28;20044;-68
2022/05/17 05:56:01;;;;;;;15.02;3.10;;;;;;;;;;5052468;28;20386;-67
2022/05/17 05:58:31;;;;;;;10.57;2.40;;;;;;;;;;5051322;28;20108;-68
2022/05/17 06:00:58;;;;;;;6.88;2.92;;;;;;;;;;5052143;28;20075;-68
2022/05/17 06:03:24;;;;;;;10.73;3.15;;;;;;;;;;5054648;28;20029;-68
2022/05/17 06:05:50;;;;;;;9.15;2.88;;;;;;;;;;5051484;28;20099;-67
2022/05/17 06:08:17;;;;;;;13.68;3.30;;;;;;;;;;5054530;28;20389;-67
2022/05/17 06:10:44;;;;;;;14.07;3.30;;;;;;;;;;5053758;28;20077;-68
2022/05/17 06:13:11;;;;;;;7.57;2.83;;;;;;;;;;5052898;28;20025;-67
2022/05/17 06:15:37;;;;;;;9.20;2.55;;;;;;;;;;5053495;28;20136;-68
2022/05/17 06:18:04;;;;;;;5.10;2.10;;;;;;;;;;5053537;28;20025;-67
2022/05/17 06:20:31;;;;;;;5.95;2.30;;;;;;;;;;5053976;28;20043;-67
2022/05/17 06:22:57;;;;;;;8.75;2.38;;;;;;;;;;5058822;28;20036;-67
2022/05/17 06:25:23;;;;;;;8.88;2.35;;;;;;;;;;5057532;28;20025;-67
2022/05/17 06:27:49;;;;;;;10.88;2.17;;;;;;;;;;5055819;28;20028;-67
2022/05/17 06:30:15;;;;;;;10.85;1.88;;;;;;;;;;5041790;28;20017;-67
2022/05/17 06:32:42;;;;;;;11.02;2.10;;;;;;;;;;5052226;28;20040;-67
2022/05/17 06:35:09;;;;;;;5.03;2.30;;;;;;;;;;5062705;28;20044;-66
2022/05/17 06:37:35;;;;;;;4.32;1.92;;;;;;;;;;5053514;28;20061;-67
2022/05/17 06:40:01;;;;;;;5.20;2.13;;;;;;;;;;5053807;28;20055;-67
2022/05/17 06:42:27;;;;;;;9.93;2.13;;;;;;;;;;5053457;28;20057;-67
2022/05/17 06:44:54;;;;;;;9.80;2.67;;;;;;;;;;5053412;28;20029;-67
2022/05/17 06:47:20;;;;;;;10.10;2.53;;;;;;;;;;5052789;28;20014;-67
2022/05/17 06:49:47;;;;;;;6.28;2.38;;;;;;;;;;5053416;28;20108;-67
2022/05/17 06:52:13;;;;;;;5.78;1.88;;;;;;;;;;5052848;28;20040;-67
2022/05/17 06:54:40;;;;;;;6.43;1.70;;;;;;;;;;5053270;28;20151;-67
2022/05/17 06:57:08;;;;;;;7.13;2.10;;;;;;;;;;5052588;28;20036;-67
2022/05/17 06:59:34;;;;;;;7.72;1.98;;;;;;;;;;5052955;28;20037;-67
2022/05/17 07:02:01;;;;;;;9.02;2.30;;;;;;;;;;5052639;28;20104;-67
2022/05/17 07:04:28;;;;;;;7.78;2.45;;;;;;;;;;5053046;28;20496;-67
2022/05/17 07:06:57;;;;;;;6.13;2.10;;;;;;;;;;5052930;28;20032;-67
2022/05/17 07:09:24;;;;;;;6.93;1.90;;;;;;;;;;5052783;28;20021;-67
2022/05/17 07:14:37;;;;;;;5.30;1.90;;;;;;;;;;5052927;28;20033;-67
2022/05/17 07:17:07;;;;;;;3.00;1.58;;;;;;;;;;5050675;28;20020;-67
2022/05/17 07:19:34;;;;;;;6.38;1.60;;;;;;;;;;5052717;28;20025;-66
2022/05/17 07:22:04;;;;;;;6.97;2.30;;;;;;;;;;5052354;28;20021;-67
2022/05/17 07:24:31;;;;;;;5.97;1.70;;;;;;;;;;5052499;28;20117;-67
2022/05/17 07:26:57;;;;;;;8.10;1.85;;;;;;;;;;5052053;28;20028;-67
2022/05/17 07:29:24;;;;;;;8.50;1.90;;;;;;;;;;5058610;28;20020;-67
2022/05/17 07:31:50;;;;;;;4.03;1.77;;;;;;;;;;5053046;28;20021;-67
2022/05/17 07:34:16;;;;;;;5.40;1.85;;;;;;;;;;5055225;28;20051;-67
2022/05/17 07:36:42;;;;;;;7.88;2.00;;;;;;;;;;5073167;28;20024;-67
2022/05/17 07:39:09;;;;;;;8.10;1.55;;;;;;;;;;5072768;28;20020;-67
2022/05/17 07:41:35;;;;;;;5.85;1.42;;;;;;;;;;5053844;28;20037;-66
2022/05/17 07:44:02;;;;;;;5.88;1.50;;;;;;;;;;5050845;28;20037;-67
2022/05/17 07:46:28;;;;;;;5.13;1.23;;;;;;;;;;5051733;28;20112;-67
2022/05/17 07:48:54;;;;;;;7.00;2.30;;;;;;;;;;5051231;28;20029;-67
2022/05/17 07:51:20;;;;;;;7.20;1.50;;;;;;;;;;5050993;28;20029;-67
2022/05/17 07:53:47;;;;;;;6.03;1.67;;;;;;;;;;5051217;28;20388;-67
2022/05/17 07:56:14;;;;;;;7.13;1.85;;;;;;;;;;5049970;28;20048;-67
2022/05/17 07:58:41;;;;;;;7.22;1.60;;;;;;;;;;5051616;28;20037;-67
2022/05/17 08:01:07;;;;;;;5.30;1.30;;;;;;;;;;5050965;28;20036;-67
2022/05/17 08:03:33;;;;;;;4.90;1.10;;;;;;;;;;5051246;28;20120;-67
2022/05/17 08:06:00;;;;;;;5.88;1.30;;;;;;;;;;5051078;28;20032;-67
2022/05/17 08:08:26;;;;;;;5.65;1.52;;;;;;;;;;5051266;28;20021;-67
2022/05/17 08:10:53;;;;;;;6.82;1.50;;;;;;;;;;5050476;28;20477;-67
2022/05/17 08:13:19;;;;;;;5.57;1.65;;;;;;;;;;5050533;28;20083;-67
2022/05/17 08:15:46;;;;;;;3.95;1.38;;;;;;;;;;5051703;28;20455;-67
2022/05/17 08:18:12;;;;;;;3.35;1.42;;;;;;;;;;5039507;28;20410;-67
2022/05/17 08:20:38;;;;;;;4.72;1.25;;;;;;;;;;5051366;28;20024;-67
2022/05/17 08:23:06;;;;;;;3.38;1.05;;;;;;;;;;5044146;28;20029;-67
2022/05/17 08:28:17;;;;;;;4.22;1.52;;;;;;;;;;5050230;28;20072;-67
2022/05/17 08:30:44;;;;;;;3.25;1.00;;;;;;;;;;5050927;28;20428;-67
2022/05/17 08:33:14;;;;;;;6.30;1.27;;;;;;;;;;5050728;28;20143;-67
2022/05/17 08:35:51;;;;;;;7.22;0.98;;;;;;;;;;5047128;28;20040;-67
2022/05/17 08:38:28;;;;;;;4.90;1.20;;;;;;;;;;5042029;28;20379;-67
2022/05/17 08:40:58;;;;;;;4.20;1.40;;;;;;;;;;5048646;28;20032;-67
2022/05/17 08:43:28;;;;;;;6.40;1.13;;;;;;;;;;5056510;28;20064;-67
2022/05/17 08:46:04;;;;;;;3.22;1.00;;;;;;;;;;5051259;28;20033;-67
2022/05/17 08:48:34;;;;;;;4.00;0.95;;;;;;;;;;5054767;28;20024;-67
2022/05/17 08:51:01;;;;;;;6.72;1.30;;;;;;;;;;5053988;28;20112;-67
2022/05/17 08:53:27;;;;;;;6.20;1.35;;;;;;;;;;5054225;28;20120;-67
2022/05/17 08:55:53;;;;;;;10.25;1.70;;;;;;;;;;5054449;28;20094;-66
2022/05/17 08:58:31;;;;;;;3.25;0.98;;;;;;;;;;5078367;28;20510;-66
2022/05/17 09:01:01;;;;;;;3.90;1.20;;;;;;;;;;5056720;28;20045;-66
2022/05/17 09:03:42;;;;;;;3.28;1.02;;;;;;;;;;5054471;28;20116;-66
2022/05/17 09:06:19;;;;;;;3.55;1.05;;;;;;;;;;5054130;28;20474;-66
2022/05/17 09:08:57;;;;;;;4.80;1.10;;;;;;;;;;5048194;28;20032;-66
2022/05/17 09:11:44;;;;;;;7.72;1.25;;;;;;;;;;5053741;28;20025;-66
2022/05/17 09:14:12;;;;;;;3.63;1.45;;;;;;;;;;5054436;28;20028;-66
2022/05/17 09:17:02;;;;;;;4.28;1.20;;;;;;;;;;5054240;28;20021;-66
2022/05/17 09:19:28;;;;;;;3.38;1.00;;;;;;;;;;5042664;28;20052;-66
2022/05/17 09:21:58;;;;;;;3.70;1.00;;;;;;;;;;5053420;28;20033;-66
2022/05/17 09:24:28;;;;;;;6.85;1.55;;;;;;;;;;5051686;28;20060;-66
2022/05/17 09:27:02;;;;;;;2.42;1.27;;;;;;;;;;5054216;28;20063;-66
2022/05/17 09:29:29;;;;;;;2.47;1.10;;;;;;;;;;5053143;28;20481;-66
2022/05/17 09:31:59;;;;;;;5.80;1.00;;;;;;;;;;5053716;28;20056;-66
2022/05/17 09:34:45;;;;;;;5.93;1.05;;;;;;;;;;5053564;28;20036;-66
2022/05/17 09:37:12;;;;;;;4.63;1.33;;;;;;;;;;5054763;28;20378;-66
2022/05/17 09:39:38;;;;;;;2.78;1.02;;;;;;;;;;5055047;28;20376;-66
2022/05/17 09:42:05;;;;;;;4.55;1.35;;;;;;;;;;5052856;28;20453;-66
2022/05/17 09:44:33;;;;;;;2.10;1.02;;;;;;;;;;5054185;28;20021;-66
2022/05/17 09:47:05;;;;;;;3.22;1.05;;;;;;;;;;5054512;28;20500;-66
2022/05/17 09:52:44;;;;;;;8.68;1.48;;;;;;;;;;5042954;28;20025;-66
2022/05/17 09:55:13;;;;;;;5.38;1.25;;;;;;;;;;5053184;28;20520;-66
2022/05/17 09:57:51;;;;;;;2.80;1.30;;;;;;;;;;5035039;28;20053;-66
2022/05/17 10:00:22;;;;;;;4.90;1.50;;;;;;;;;;5048990;28;20029;-66
2022/05/17 10:02:49;;;;;;;4.90;1.85;;;;;;;;;;5052775;28;20065;-65
2022/05/17 10:05:21;;;;;;;5.20;1.60;;;;;;;;;;5061161;28;20032;-64
2022/05/17 10:07:53;;;;;;;8.70;1.65;;;;;;;;;;5074401;28;20534;-63
2022/05/17 10:10:29;;;;;;;6.93;1.55;;;;;;;;;;5066037;28;20112;-63
2022/05/17 10:13:01;;;;;;;6.38;1.90;;;;;;;;;;5041045;28;20033;-62
2022/05/17 10:15:28;;;;;;;3.47;1.83;;;;;;;;;;5050057;28;20052;-63
2022/05/17 10:17:56;;;;;;;6.07;1.48;;;;;;;;;;5049660;28;20021;-63
2022/05/17 10:20:43;;;;;;;4.15;1.92;;;;;;;;;;5052709;28;20021;-63
2022/05/17 10:23:09;;;;;;;4.47;1.80;;;;;;;;;;5046319;28;20034;-63
2022/05/17 10:25:45;;;;;;;5.93;1.92;;;;;;;;;;5053191;28;20108;-63
2022/05/17 10:28:17;;;;;;;6.10;2.30;;;;;;;;;;5074351;28;20114;-63
2022/05/17 10:30:49;;;;;;;4.90;1.90;;;;;;;;;;5073412;28;20108;-63
2022/05/17 10:33:19;;;;;;;3.50;1.67;;;;;;;;;;5073844;28;20089;-63
2022/05/17 10:35:53;;;;;;;3.67;1.90;;;;;;;;;;5057329;28;20032;-63
2022/05/17 10:38:21;;;;;;;6.60;1.90;;;;;;;;;;5053282;28;20070;-63
2022/05/17 10:40:49;;;;;;;4.78;2.03;;;;;;;;;;5053284;28;20060;-62
2022/05/17 10:43:18;;;;;;;6.93;2.38;;;;;;;;;;5053519;28;20374;-63
2022/05/17 10:45:47;;;;;;;5.63;2.08;;;;;;;;;;5053284;28;20032;-63
2022/05/17 10:48:16;;;;;;;5.45;2.20;;;;;;;;;;5053292;28;20029;-63
2022/05/17 10:50:48;;;;;;;6.43;1.73;;;;;;;;;;5052739;28;20025;-63
2022/05/17 10:53:23;;;;;;;2.45;1.88;;;;;;;;;;5053033;28;20024;-63
2022/05/17 10:55:55;;;;;;;5.20;2.15;;;;;;;;;;5055073;28;20045;-63
2022/05/17 10:58:41;;;;;;;4.55;2.10;;;;;;;;;;5057904;28;20040;-63
2022/05/17 11:01:20;;;;;;;6.82;2.35;;;;;;;;;;5053087;28;20025;-63
2022/05/17 11:04:06;;;;;;;6.15;2.03;;;;;;;;;;5062997;28;20052;-63
2022/05/17 11:06:35;;;;;;;8.93;2.28;;;;;;;;;;5052919;28;20041;-63
2022/05/17 11:09:04;;;;;;;12.23;2.30;;;;;;;;;;5052088;28;20457;-63
2022/05/17 11:11:32;;;;;;;11.45;2.60;;;;;;;;;;5052774;28;20112;-63
2022/05/17 11:14:06;;;;;;;5.85;2.22;;;;;;;;;;5052709;28;20025;-63
2022/05/17 11:16:37;;;;;;;4.05;2.35;;;;;;;;;;5053138;28;20043;-63
2022/05/17 11:19:07;;;;;;;5.15;2.50;;;;;;;;;;5052701;28;20485;-63
2022/05/17 11:21:33;;;;;;;3.90;2.22;;;;;;;;;;5052286;28;20116;-63
2022/05/17 11:24:14;;;;;;;9.57;2.38;;;;;;;;;;5066166;28;20032;-63
2022/05/17 11:26:40;;;;;;;3.45;2.13;;;;;;;;;;5054343;28;20057;-64
2022/05/17 11:29:10;;;;;;;6.00;1.88;;;;;;;;;;5050625;28;20021;-64
2022/05/17 11:31:55;;;;;;;5.95;2.45;;;;;;;;;;5051470;28;20124;-63
2022/05/17 11:34:26;;;;;;;5.65;2.30;;;;;;;;;;5045390;28;20464;-65
2022/05/17 11:36:56;;;;;;;4.82;2.38;;;;;;;;;;5038419;28;20037;-64
2022/05/17 11:39:32;;;;;;;6.40;2.28;;;;;;;;;;5051552;28;20377;-64
2022/05/17 11:42:08;;;;;;;9.27;1.88;;;;;;;;;;5052426;28;20029;-65
2022/05/17 11:44:41;;;;;;;6.05;2.75;;;;;;;;;;5052087;28;20033;-64
2022/05/17 11:47:27;;;;;;;7.85;2.20;;;;;;;;;;5047168;28;20034;-65
2022/05/17 11:49:53;;;;;;;4.85;2.05;;;;;;;;;;5039195;28;20151;-65
2022/05/17 11:52:24;;;;;;;7.65;2.38;;;;;;;;;;5052777;28;20033;-65
2022/05/17 11:54:51;;;;;;;5.18;2.55;;;;;;;;;;5051161;28;20033;-65
2022/05/17 11:57:18;;;;;;;6.53;2.63;;;;;;;;;;5052453;28;20477;-65
2022/05/17 11:59:45;;;;;;;8.85;2.35;;;;;;;;;;5051981;28;20037;-65
2022/05/17 12:02:13;;;;;;;4.45;1.65;;;;;;;;;;5051500;28;20028;-65
2022/05/17 12:04:42;;;;;;;10.63;3.10;;;;;;;;;;5052118;28;20032;-65
2022/05/17 12:07:28;;;;;;;3.97;1.90;;;;;;;;;;5051958;28;20025;-65
2022/05/17 12:10:09;;;;;;;6.82;2.30;;;;;;;;;;5051848;28;20032;-65
2022/05/17 12:12:56;;;;;;;8.50;2.45;;;;;;;;;;5052202;28;20033;-65
2022/05/17 12:15:32;;;;;;;9.00;2.47;;;;;;;;;;5051897;28;20447;-65
2022/05/17 12:18:17;;;;;;;5.85;2.38;;;;;;;;;;5051396;28;20069;-65
2022/05/17 12:20:46;;;;;;;7.72;2.80;;;;;;;;;;5053013;28;20039;-65
2022/05/17 12:23:16;;;;;;;8.15;2.42;;;;;;;;;;5055895;28;20104;-65
2022/05/17 12:25:49;;;;;;;9.10;2.65;;;;;;;;;;5056035;28;20021;-65
2022/05/17 12:28:21;;;;;;;7.00;2.70;;;;;;;;;;5055913;28;20032;-65
2022/05/17 12:30:54;;;;;;;4.72;2.70;;;;;;;;;;5054125;28;20473;-65
2022/05/17 12:33:20;;;;;;;10.35;2.90;;;;;;;;;;5056004;28;20039;-65
2022/05/17 12:35:47;;;;;;;11.80;2.97;;;;;;;;;;5055775;28;20052;-65
2022/05/17 12:44:23;;;;;;;7.93;2.65;;;;;;;;;;4994243;28;20046;-65
2022/05/17 12:46:51;;;;;;;9.20;2.42;;;;;;;;;;4993729;28;20065;-65
2022/05/17 12:49:20;;;;;;;4.55;2.50;;;;;;;;;;4994282;28;20870;-65
2022/05/17 12:51:50;;;;;;;6.38;2.30;;;;;;;;;;4994292;28;20529;-65
2022/05/17 12:54:18;;;;;;;5.38;2.25;;;;;;;;;;4994005;28;20038;-65
2022/05/17 12:56:47;;;;;;;6.18;2.50;;;;;;;;;;4993683;28;20057;-65
2022/05/17 12:59:14;;;;;;;6.75;2.45;;;;;;;;;;4993804;28;20074;-65
2022/05/17 13:01:42;;;;;;;8.93;2.17;;;;;;;;;;4993675;28;20132;-65
2022/05/17 13:04:09;;;;;;;8.55;2.92;;;;;;;;;;4993579;28;20502;-65
2022/05/17 13:06:37;;;;;;;5.25;2.28;;;;;;;;;;4994055;28;20019;-65
2022/05/17 13:09:06;;;;;;;9.75;2.72;;;;;;;;;;4993589;28;20038;-65
2022/05/17 13:11:32;;;;;;;8.55;2.90;;;;;;;;;;4993749;28;20428;-65
2022/05/17 13:14:09;;;;;;;5.15;2.55;;;;;;;;;;4993353;28;20042;-65
2022/05/17 13:16:40;;;;;;;4.03;2.10;;;;;;;;;;5035339;28;20041;-65
2022/05/17 13:19:09;;;;;;;10.70;2.13;;;;;;;;;;5034961;28;20045;-65
2022/05/17 13:21:37;;;;;;;5.55;2.55;;;;;;;;;;5035216;28;20087;-65
2022/05/17 13:24:06;;;;;;;4.70;2.05;;;;;;;;;;5038270;28;20053;-65
2022/05/17 13:26:34;;;;;;;4.32;2.00;;;;;;;;;;5075153;28;20030;-65
2022/05/17 13:29:19;;;;;;;4.63;1.83;;;;;;;;;;5074332;28;20027;-65
2022/05/17 13:31:45;;;;;;;5.38;1.80;;;;;;;;;;5074382;28;20032;-65
2022/05/17 13:34:16;;;;;;;8.68;2.00;;;;;;;;;;5074089;28;20101;-65
2022/05/17 13:36:42;;;;;;;6.63;1.70;;;;;;;;;;5074819;28;20036;-65
2022/05/17 13:39:26;;;;;;;5.32;1.50;;;;;;;;;;5074611;28;20047;-64
2022/05/17 13:41:54;;;;;;;4.30;1.95;;;;;;;;;;5074633;28;20119;-64
2022/05/17 13:44:31;;;;;;;3.70;1.73;;;;;;;;;;5074221;28;20092;-64
2022/05/17 13:47:00;;;;;;;6.75;1.67;;;;;;;;;;5074302;28;20391;-65
2022/05/17 13:49:34;;;;;;;5.68;1.52;;;;;;;;;;5074501;28;20445;-64
2022/05/17 13:52:06;;;;;;;3.63;1.67;;;;;;;;;;5063022;28;20032;-65
2022/05/17 13:54:41;;;;;;;3.55;1.50;;;;;;;;;;5045271;28;20385;-65
2022/05/17 13:57:16;;;;;;;3.95;1.50;;;;;;;;;;5034744;28;20544;-65
2022/05/17 13:59:49;;;;;;;6.47;2.05;;;;;;;;;;5034666;28;20440;-65
2022/05/17 14:02:15;;;;;;;;;;;;;;;;;;5034534;28;20029;-65
2022/05/17 14:04:44;;;;;;;6.93;1.63;;;;;;;;;;5047049;28;19958;-65
2022/05/17 14:07:16;;;;;;;5.32;1.50;;;;;;;;;;5053795;28;20032;-65
2022/05/17 14:12:28;;;;;;;6.40;1.80;;;;;;;;;;5053878;28;20025;-65
2022/05/17 14:14:54;;;;;;;5.28;1.38;;;;;;;;;;5054046;28;20033;-65
2022/05/17 14:17:27;;;;;;;5.00;1.38;;;;;;;;;;5052349;28;20036;-65
2022/05/17 14:19:55;;;;;;;1.70;1.13;;;;;;;;;;5054465;28;20032;-65
2022/05/17 14:22:21;;;;;;;4.07;1.40;;;;;;;;;;5053569;28;20104;-65
2022/05/17 14:24:48;;;;;;;2.25;1.30;;;;;;;;;;5051478;28;20025;-66
2022/05/17 14:27:15;;;;;;;1.95;1.25;;;;;;;;;;5050445;28;20035;-66
2022/05/17 14:29:42;;;;;;;4.05;1.00;;;;;;;;;;5053183;28;20039;-66
2022/05/17 14:32:09;;;;;;;4.57;1.33;;;;;;;;;;5053021;28;20024;-66
2022/05/17 14:34:35;;;;;;;2.58;1.17;;;;;;;;;;5053144;28;20108;-66
2022/05/17 14:37:03;;;;;;;5.60;1.08;;;;;;;;;;5050810;28;20449;-66
2022/05/17 14:39:30;;;;;;;2.55;1.10;;;;;;;;;;5049638;28;20168;-65
2022/05/17 14:41:56;;;;;;;5.38;1.85;;;;;;;;;;5052626;28;20066;-65
2022/05/17 14:44:24;;;;;;;3.42;1.10;;;;;;;;;;5052827;28;20037;-65
2022/05/17 14:46:51;;;;;;;3.35;1.33;;;;;;;;;;5052791;28;20016;-65
2022/05/17 14:49:22;;;;;;;4.03;1.10;;;;;;;;;;5052446;28;20047;-65
2022/05/17 14:51:49;;;;;;;4.10;1.23;;;;;;;;;;5050197;28;20021;-65
2022/05/17 14:54:15;;;;;;;3.30;0.93;;;;;;;;;;5052198;28;20104;-65
2022/05/17 14:56:41;;;;;;;6.32;1.63;;;;;;;;;;5052052;28;20041;-65
2022/05/17 14:59:09;;;;;;;3.78;1.40;;;;;;;;;;5049563;28;20025;-65
2022/05/17 15:01:37;;;;;;;8.15;1.30;;;;;;;;;;5048386;28;20029;-65
2022/05/17 15:04:05;;;;;;;3.25;1.15;;;;;;;;;;5052347;28;20037;-65